Terminal Aerodrome Forecast
Issued by NWS

Home | Current Version | Previous Version | Text Only | Print | Product List | Glossary On
Versions: 1 2 3 4 5 6 7 8 9 10 11 12 13 14
683
FTUS46 KOTX 221739
TAFSFF
TAF
KSFF 221739Z 2218/2318 03004KT P6SM SCT120
     FM222100 02005KT P6SM VCTS SCT070CB SCT120
     FM230200 VRB04KT P6SM FEW070 BKN120
     FM230900 VRB02KT P6SM SKC=

USA.gov is the U.S. government's official web portal to all federal, state and local government web resources and services.